sensor_id;sensor_type;location;lat;lon;timestamp;temperature;humidity
46676;DHT22;32412;51.478;5.694;2023-12-28T00:01:40;10.30;99.90
46676;DHT22;32412;51.478;5.694;2023-12-28T00:04:05;10.30;99.90
46676;DHT22;32412;51.478;5.694;2023-12-28T00:06:31;10.30;99.90
46676;DHT22;32412;51.478;5.694;2023-12-28T00:08:57;10.30;99.90
46676;DHT22;32412;51.478;5.694;2023-12-28T00:11:22;10.30;99.90
46676;DHT22;32412;51.478;5.694;2023-12-28T00:13:48;10.30;99.90
46676;DHT22;32412;51.478;5.694;2023-12-28T00:16:14;10.20;99.90
46676;DHT22;32412;51.478;5.694;2023-12-28T00:18:40;10.20;99.90
46676;DHT22;32412;51.478;5.694;2023-12-28T00:21:05;10.20;99.90
46676;DHT22;32412;51.478;5.694;2023-12-28T00:23:31;10.20;99.90
46676;DHT22;32412;51.478;5.694;2023-12-28T00:25:57;10.20;99.90
46676;DHT22;32412;51.478;5.694;2023-12-28T00:28:22;10.20;99.90
46676;DHT22;32412;51.478;5.694;2023-12-28T00:30:48;10.20;99.90
46676;DHT22;32412;51.478;5.694;2023-12-28T00:33:13;10.20;99.90
46676;DHT22;32412;51.478;5.694;2023-12-28T00:35:42;10.20;99.90
46676;DHT22;32412;51.478;5.694;2023-12-28T00:38:08;10.20;99.90
46676;DHT22;32412;51.478;5.694;2023-12-28T00:40:33;10.30;99.90
46676;DHT22;32412;51.478;5.694;2023-12-28T00:42:59;10.30;99.90
46676;DHT22;32412;51.478;5.694;2023-12-28T00:45:25;10.30;99.90
46676;DHT22;32412;51.478;5.694;2023-12-28T00:47:50;10.30;99.90
46676;DHT22;32412;51.478;5.694;2023-12-28T00:50:17;10.40;99.90
46676;DHT22;32412;51.478;5.694;2023-12-28T00:52:43;10.40;99.90
46676;DHT22;32412;51.478;5.694;2023-12-28T00:55:10;10.40;99.90
46676;DHT22;32412;51.478;5.694;2023-12-28T00:57:36;10.40;99.90
46676;DHT22;32412;51.478;5.694;2023-12-28T01:00:02;10.30;99.90
46676;DHT22;32412;51.478;5.694;2023-12-28T01:02:28;10.30;99.90
46676;DHT22;32412;51.478;5.694;2023-12-28T01:04:54;10.30;99.90
46676;DHT22;32412;51.478;5.694;2023-12-28T01:07:19;10.30;99.90
46676;DHT22;32412;51.478;5.694;2023-12-28T01:09:45;10.20;99.90
46676;DHT22;32412;51.478;5.694;2023-12-28T01:12:11;10.20;99.90
46676;DHT22;32412;51.478;5.694;2023-12-28T01:14:36;10.20;99.90
46676;DHT22;32412;51.478;5.694;2023-12-28T01:17:02;10.20;99.90
46676;DHT22;32412;51.478;5.694;2023-12-28T01:19:28;10.30;99.90
46676;DHT22;32412;51.478;5.694;2023-12-28T01:21:53;10.30;99.90
46676;DHT22;32412;51.478;5.694;2023-12-28T01:24:19;10.30;99.90
46676;DHT22;32412;51.478;5.694;2023-12-28T01:26:45;10.30;99.90
46676;DHT22;32412;51.478;5.694;2023-12-28T01:29:10;10.40;99.90
46676;DHT22;32412;51.478;5.694;2023-12-28T01:31:36;10.40;99.90
46676;DHT22;32412;51.478;5.694;2023-12-28T01:34:04;10.40;99.90
46676;DHT22;32412;51.478;5.694;2023-12-28T01:36:30;10.50;99.90
46676;DHT22;32412;51.478;5.694;2023-12-28T01:38:56;10.50;99.90
46676;DHT22;32412;51.478;5.694;2023-12-28T01:41:21;10.40;99.90
46676;DHT22;32412;51.478;5.694;2023-12-28T01:43:47;10.40;99.90
46676;DHT22;32412;51.478;5.694;2023-12-28T01:46:21;10.40;99.90
46676;DHT22;32412;51.478;5.694;2023-12-28T01:48:49;10.50;99.90
46676;DHT22;32412;51.478;5.694;2023-12-28T01:51:15;10.40;99.90
46676;DHT22;32412;51.478;5.694;2023-12-28T01:53:41;10.40;99.90
46676;DHT22;32412;51.478;5.694;2023-12-28T01:56:07;10.40;99.90
46676;DHT22;32412;51.478;5.694;2023-12-28T01:58:35;10.40;99.90
46676;DHT22;32412;51.478;5.694;2023-12-28T02:01:01;10.40;99.90
46676;DHT22;32412;51.478;5.694;2023-12-28T02:03:27;10.40;99.90
46676;DHT22;32412;51.478;5.694;2023-12-28T02:05:53;10.30;99.90
46676;DHT22;32412;51.478;5.694;2023-12-28T02:08:19;10.30;99.90
46676;DHT22;32412;51.478;5.694;2023-12-28T02:10:45;10.30;99.90
46676;DHT22;32412;51.478;5.694;2023-12-28T02:13:11;10.30;99.90
46676;DHT22;32412;51.478;5.694;2023-12-28T02:15:36;10.40;99.90
46676;DHT22;32412;51.478;5.694;2023-12-28T02:18:16;10.40;99.90
46676;DHT22;32412;51.478;5.694;2023-12-28T02:20:44;10.30;99.90
46676;DHT22;32412;51.478;5.694;2023-12-28T02:23:10;10.20;99.90
46676;DHT22;32412;51.478;5.694;2023-12-28T02:25:36;10.20;99.90
46676;DHT22;32412;51.478;5.694;2023-12-28T02:32:03;10.10;99.90
46676;DHT22;32412;51.478;5.694;2023-12-28T02:34:36;10.00;99.90
46676;DHT22;32412;51.478;5.694;2023-12-28T02:37:03;9.90;99.90
46676;DHT22;32412;51.478;5.694;2023-12-28T02:39:30;9.90;99.90
46676;DHT22;32412;51.478;5.694;2023-12-28T02:41:56;9.90;99.90
46676;DHT22;32412;51.478;5.694;2023-12-28T02:44:21;9.80;99.90
46676;DHT22;32412;51.478;5.694;2023-12-28T02:46:47;9.80;99.90
46676;DHT22;32412;51.478;5.694;2023-12-28T02:49:13;9.80;99.90
46676;DHT22;32412;51.478;5.694;2023-12-28T02:51:40;9.80;99.90
46676;DHT22;32412;51.478;5.694;2023-12-28T02:54:07;9.80;99.90
46676;DHT22;32412;51.478;5.694;2023-12-28T02:56:33;9.70;99.90
46676;DHT22;32412;51.478;5.694;2023-12-28T02:58:59;9.80;99.90
46676;DHT22;32412;51.478;5.694;2023-12-28T03:01:25;9.70;99.90
46676;DHT22;32412;51.478;5.694;2023-12-28T03:03:51;9.80;99.90
46676;DHT22;32412;51.478;5.694;2023-12-28T03:06:16;9.80;99.90
46676;DHT22;32412;51.478;5.694;2023-12-28T03:08:42;9.70;99.90
46676;DHT22;32412;51.478;5.694;2023-12-28T03:11:08;9.70;99.90
46676;DHT22;32412;51.478;5.694;2023-12-28T03:13:33;9.70;99.90
46676;DHT22;32412;51.478;5.694;2023-12-28T03:15:59;9.80;99.90
46676;DHT22;32412;51.478;5.694;2023-12-28T03:18:24;9.80;99.90
46676;DHT22;32412;51.478;5.694;2023-12-28T03:20:50;9.80;99.90
46676;DHT22;32412;51.478;5.694;2023-12-28T03:23:16;9.90;99.90
46676;DHT22;32412;51.478;5.694;2023-12-28T03:25:41;9.80;99.90
46676;DHT22;32412;51.478;5.694;2023-12-28T03:28:07;9.80;99.90
46676;DHT22;32412;51.478;5.694;2023-12-28T03:30:33;9.70;99.90
46676;DHT22;32412;51.478;5.694;2023-12-28T03:32:58;9.70;99.90
46676;DHT22;32412;51.478;5.694;2023-12-28T03:35:24;9.60;99.90
46676;DHT22;32412;51.478;5.694;2023-12-28T03:37:50;9.60;99.90
46676;DHT22;32412;51.478;5.694;2023-12-28T03:40:15;9.60;99.90
46676;DHT22;32412;51.478;5.694;2023-12-28T03:42:41;9.50;99.90
46676;DHT22;32412;51.478;5.694;2023-12-28T03:45:07;9.50;99.90
46676;DHT22;32412;51.478;5.694;2023-12-28T03:47:33;9.50;99.90
46676;DHT22;32412;51.478;5.694;2023-12-28T03:49:59;9.60;99.90
46676;DHT22;32412;51.478;5.694;2023-12-28T03:52:28;9.60;99.90
46676;DHT22;32412;51.478;5.694;2023-12-28T03:54:55;9.70;99.90
46676;DHT22;32412;51.478;5.694;2023-12-28T03:57:21;9.80;99.90
46676;DHT22;32412;51.478;5.694;2023-12-28T03:59:47;9.90;99.90
46676;DHT22;32412;51.478;5.694;2023-12-28T04:02:13;9.90;99.90
46676;DHT22;32412;51.478;5.694;2023-12-28T04:04:39;9.90;99.90
46676;DHT22;32412;51.478;5.694;2023-12-28T04:07:05;9.90;99.90
46676;DHT22;32412;51.478;5.694;2023-12-28T04:09:33;9.90;99.90
46676;DHT22;32412;51.478;5.694;2023-12-28T04:11:58;9.90;99.90
46676;DHT22;32412;51.478;5.694;2023-12-28T04:14:24;9.90;99.90
46676;DHT22;32412;51.478;5.694;2023-12-28T04:16:50;10.00;99.90
46676;DHT22;32412;51.478;5.694;2023-12-28T04:19:15;9.90;99.90
46676;DHT22;32412;51.478;5.694;2023-12-28T04:21:44;10.00;99.90
46676;DHT22;32412;51.478;5.694;2023-12-28T04:24:10;10.00;99.90
46676;DHT22;32412;51.478;5.694;2023-12-28T04:26:36;10.00;99.90
46676;DHT22;32412;51.478;5.694;2023-12-28T04:29:02;10.00;99.90
46676;DHT22;32412;51.478;5.694;2023-12-28T04:31:28;10.00;99.90
46676;DHT22;32412;51.478;5.694;2023-12-28T04:33:53;10.00;99.90
46676;DHT22;32412;51.478;5.694;2023-12-28T04:36:19;10.00;99.90
46676;DHT22;32412;51.478;5.694;2023-12-28T04:38:45;10.00;99.90
46676;DHT22;32412;51.478;5.694;2023-12-28T04:41:10;10.00;99.90
46676;DHT22;32412;51.478;5.694;2023-12-28T04:43:37;10.00;99.90
46676;DHT22;32412;51.478;5.694;2023-12-28T04:46:06;9.90;99.90
46676;DHT22;32412;51.478;5.694;2023-12-28T04:48:32;9.90;99.90
46676;DHT22;32412;51.478;5.694;2023-12-28T04:50:58;9.80;99.90
46676;DHT22;32412;51.478;5.694;2023-12-28T04:53:23;9.90;99.90
46676;DHT22;32412;51.478;5.694;2023-12-28T04:55:49;9.90;99.90
46676;DHT22;32412;51.478;5.694;2023-12-28T04:58:15;9.90;99.90
46676;DHT22;32412;51.478;5.694;2023-12-28T05:00:40;10.00;99.90
46676;DHT22;32412;51.478;5.694;2023-12-28T05:03:06;10.00;99.90
46676;DHT22;32412;51.478;5.694;2023-12-28T05:05:32;10.00;99.90
46676;DHT22;32412;51.478;5.694;2023-12-28T05:07:58;10.00;99.90
46676;DHT22;32412;51.478;5.694;2023-12-28T05:10:23;10.10;99.90
46676;DHT22;32412;51.478;5.694;2023-12-28T05:12:49;10.00;99.90
46676;DHT22;32412;51.478;5.694;2023-12-28T05:15:15;10.10;99.90
46676;DHT22;32412;51.478;5.694;2023-12-28T05:17:41;10.20;99.90
46676;DHT22;32412;51.478;5.694;2023-12-28T05:20:07;10.20;99.90
46676;DHT22;32412;51.478;5.694;2023-12-28T05:22:33;10.30;99.90
46676;DHT22;32412;51.478;5.694;2023-12-28T05:24:58;10.40;99.90
46676;DHT22;32412;51.478;5.694;2023-12-28T05:27:24;10.50;99.90
46676;DHT22;32412;51.478;5.694;2023-12-28T05:29:50;10.60;99.90
46676;DHT22;32412;51.478;5.694;2023-12-28T05:32:16;10.70;99.90
46676;DHT22;32412;51.478;5.694;2023-12-28T05:34:41;10.80;99.90
46676;DHT22;32412;51.478;5.694;2023-12-28T05:37:07;10.80;99.90
46676;DHT22;32412;51.478;5.694;2023-12-28T05:39:33;10.70;99.90
46676;DHT22;32412;51.478;5.694;2023-12-28T05:41:58;10.60;99.90
46676;DHT22;32412;51.478;5.694;2023-12-28T05:44:24;10.60;99.90
46676;DHT22;32412;51.478;5.694;2023-12-28T05:46:50;10.50;99.90
46676;DHT22;32412;51.478;5.694;2023-12-28T05:49:16;10.40;99.90
46676;DHT22;32412;51.478;5.694;2023-12-28T05:51:41;10.40;99.90
46676;DHT22;32412;51.478;5.694;2023-12-28T05:54:08;10.30;99.90
46676;DHT22;32412;51.478;5.694;2023-12-28T05:56:34;10.40;99.90
46676;DHT22;32412;51.478;5.694;2023-12-28T05:59:00;10.40;99.90
46676;DHT22;32412;51.478;5.694;2023-12-28T06:01:25;10.30;99.90
46676;DHT22;32412;51.478;5.694;2023-12-28T06:03:52;10.30;99.90
46676;DHT22;32412;51.478;5.694;2023-12-28T06:06:18;10.30;99.90
46676;DHT22;32412;51.478;5.694;2023-12-28T06:08:44;10.40;99.90
46676;DHT22;32412;51.478;5.694;2023-12-28T06:11:10;10.40;99.90
46676;DHT22;32412;51.478;5.694;2023-12-28T06:13:35;10.40;99.90
46676;DHT22;32412;51.478;5.694;2023-12-28T06:16:01;10.50;99.90
46676;DHT22;32412;51.478;5.694;2023-12-28T06:18:27;10.50;99.90
46676;DHT22;32412;51.478;5.694;2023-12-28T06:20:53;10.50;99.90
46676;DHT22;32412;51.478;5.694;2023-12-28T06:23:18;10.50;99.90
46676;DHT22;32412;51.478;5.694;2023-12-28T06:25:44;10.50;99.90
46676;DHT22;32412;51.478;5.694;2023-12-28T06:28:10;10.50;99.90
46676;DHT22;32412;51.478;5.694;2023-12-28T06:30:35;10.50;99.90
46676;DHT22;32412;51.478;5.694;2023-12-28T06:33:01;10.60;99.90
46676;DHT22;32412;51.478;5.694;2023-12-28T06:35:27;10.60;99.90
46676;DHT22;32412;51.478;5.694;2023-12-28T06:37:52;10.70;99.90
46676;DHT22;32412;51.478;5.694;2023-12-28T06:40:18;10.80;99.90
46676;DHT22;32412;51.478;5.694;2023-12-28T06:42:43;10.80;99.90
46676;DHT22;32412;51.478;5.694;2023-12-28T06:45:10;10.80;99.90
46676;DHT22;32412;51.478;5.694;2023-12-28T06:47:36;10.80;99.90
46676;DHT22;32412;51.478;5.694;2023-12-28T06:50:02;10.80;99.90
46676;DHT22;32412;51.478;5.694;2023-12-28T06:52:27;10.90;99.90
46676;DHT22;32412;51.478;5.694;2023-12-28T06:54:54;10.90;99.90
46676;DHT22;32412;51.478;5.694;2023-12-28T06:57:20;10.90;99.90
46676;DHT22;32412;51.478;5.694;2023-12-28T06:59:45;10.90;99.90
46676;DHT22;32412;51.478;5.694;2023-12-28T07:02:11;10.90;99.90
46676;DHT22;32412;51.478;5.694;2023-12-28T07:04:37;10.90;99.90
46676;DHT22;32412;51.478;5.694;2023-12-28T07:07:03;10.90;99.90
46676;DHT22;32412;51.478;5.694;2023-12-28T07:09:29;10.90;99.90
46676;DHT22;32412;51.478;5.694;2023-12-28T07:11:54;10.90;99.90
46676;DHT22;32412;51.478;5.694;2023-12-28T07:14:20;10.80;99.90
46676;DHT22;32412;51.478;5.694;2023-12-28T07:16:49;10.80;99.90
46676;DHT22;32412;51.478;5.694;2023-12-28T07:19:15;10.80;99.90
46676;DHT22;32412;51.478;5.694;2023-12-28T07:21:40;10.70;99.90
46676;DHT22;32412;51.478;5.694;2023-12-28T07:24:07;10.60;99.90
46676;DHT22;32412;51.478;5.694;2023-12-28T07:26:33;10.60;99.90
46676;DHT22;32412;51.478;5.694;2023-12-28T07:28:58;10.60;99.90
46676;DHT22;32412;51.478;5.694;2023-12-28T07:31:25;10.60;99.90
46676;DHT22;32412;51.478;5.694;2023-12-28T07:37:12;10.70;99.90
46676;DHT22;32412;51.478;5.694;2023-12-28T07:39:38;10.60;99.90
46676;DHT22;32412;51.478;5.694;2023-12-28T07:42:04;10.60;99.90
46676;DHT22;32412;51.478;5.694;2023-12-28T07:44:30;10.70;99.90
46676;DHT22;32412;51.478;5.694;2023-12-28T07:46:55;10.50;99.90
46676;DHT22;32412;51.478;5.694;2023-12-28T07:49:21;10.50;99.90
46676;DHT22;32412;51.478;5.694;2023-12-28T07:51:47;10.40;99.90
46676;DHT22;32412;51.478;5.694;2023-12-28T07:54:13;10.40;99.90
46676;DHT22;32412;51.478;5.694;2023-12-28T07:56:38;10.50;99.90
46676;DHT22;32412;51.478;5.694;2023-12-28T07:59:05;10.50;99.90
46676;DHT22;32412;51.478;5.694;2023-12-28T08:01:31;10.50;99.90
46676;DHT22;32412;51.478;5.694;2023-12-28T08:03:58;10.50;99.90
46676;DHT22;32412;51.478;5.694;2023-12-28T08:06:35;10.50;99.90
46676;DHT22;32412;51.478;5.694;2023-12-28T08:09:07;10.50;99.90
46676;DHT22;32412;51.478;5.694;2023-12-28T08:11:34;10.60;99.90
46676;DHT22;32412;51.478;5.694;2023-12-28T08:14:02;10.60;99.90
46676;DHT22;32412;51.478;5.694;2023-12-28T08:16:29;10.60;99.90
46676;DHT22;32412;51.478;5.694;2023-12-28T08:18:54;10.60;99.90
46676;DHT22;32412;51.478;5.694;2023-12-28T08:21:20;10.60;99.90
46676;DHT22;32412;51.478;5.694;2023-12-28T08:23:46;10.60;99.90
46676;DHT22;32412;51.478;5.694;2023-12-28T08:26:12;10.60;99.90
46676;DHT22;32412;51.478;5.694;2023-12-28T08:28:37;10.70;99.90
46676;DHT22;32412;51.478;5.694;2023-12-28T08:31:17;10.70;99.90
46676;DHT22;32412;51.478;5.694;2023-12-28T08:33:46;10.70;99.90
46676;DHT22;32412;51.478;5.694;2023-12-28T08:36:12;10.70;99.90
46676;DHT22;32412;51.478;5.694;2023-12-28T08:38:38;10.70;99.90
46676;DHT22;32412;51.478;5.694;2023-12-28T08:41:03;10.80;99.90
46676;DHT22;32412;51.478;5.694;2023-12-28T08:43:44;10.80;99.90
46676;DHT22;32412;51.478;5.694;2023-12-28T08:46:10;10.80;99.90
46676;DHT22;32412;51.478;5.694;2023-12-28T08:48:36;10.80;99.90
46676;DHT22;32412;51.478;5.694;2023-12-28T08:51:02;10.80;99.90
46676;DHT22;32412;51.478;5.694;2023-12-28T08:53:27;10.90;99.90
46676;DHT22;32412;51.478;5.694;2023-12-28T08:55:53;10.90;99.90
46676;DHT22;32412;51.478;5.694;2023-12-28T08:58:19;10.90;99.90
46676;DHT22;32412;51.478;5.694;2023-12-28T09:00:44;10.90;99.90
46676;DHT22;32412;51.478;5.694;2023-12-28T09:03:11;10.90;99.90
46676;DHT22;32412;51.478;5.694;2023-12-28T09:05:37;10.90;99.90
46676;DHT22;32412;51.478;5.694;2023-12-28T09:08:13;11.00;99.90
46676;DHT22;32412;51.478;5.694;2023-12-28T09:10:42;11.00;99.90
46676;DHT22;32412;51.478;5.694;2023-12-28T09:13:07;11.00;99.90
46676;DHT22;32412;51.478;5.694;2023-12-28T09:15:43;11.00;99.90
46676;DHT22;32412;51.478;5.694;2023-12-28T09:18:12;11.00;99.90
46676;DHT22;32412;51.478;5.694;2023-12-28T09:20:37;11.00;99.90
46676;DHT22;32412;51.478;5.694;2023-12-28T09:23:09;11.00;99.90
46676;DHT22;32412;51.478;5.694;2023-12-28T09:25:40;10.90;99.90
46676;DHT22;32412;51.478;5.694;2023-12-28T09:28:05;10.90;99.90
46676;DHT22;32412;51.478;5.694;2023-12-28T09:30:31;10.90;99.90
46676;DHT22;32412;51.478;5.694;2023-12-28T09:32:57;10.90;99.90
46676;DHT22;32412;51.478;5.694;2023-12-28T09:35:23;10.90;99.90
46676;DHT22;32412;51.478;5.694;2023-12-28T09:37:50;10.90;99.90
46676;DHT22;32412;51.478;5.694;2023-12-28T09:40:16;10.90;99.90
46676;DHT22;32412;51.478;5.694;2023-12-28T09:42:58;10.90;99.90
46676;DHT22;32412;51.478;5.694;2023-12-28T09:45:26;10.90;99.90
46676;DHT22;32412;51.478;5.694;2023-12-28T09:47:52;11.00;99.90
46676;DHT22;32412;51.478;5.694;2023-12-28T09:50:18;11.00;99.90
46676;DHT22;32412;51.478;5.694;2023-12-28T09:52:45;11.00;99.90
46676;DHT22;32412;51.478;5.694;2023-12-28T09:55:10;11.10;99.90
46676;DHT22;32412;51.478;5.694;2023-12-28T09:57:37;11.10;99.90
46676;DHT22;32412;51.478;5.694;2023-12-28T10:00:04;11.10;99.90
46676;DHT22;32412;51.478;5.694;2023-12-28T10:02:32;11.10;99.90
46676;DHT22;32412;51.478;5.694;2023-12-28T10:05:06;11.10;99.90
46676;DHT22;32412;51.478;5.694;2023-12-28T10:07:32;11.10;99.90
46676;DHT22;32412;51.478;5.694;2023-12-28T10:09:58;11.20;99.90
46676;DHT22;32412;51.478;5.694;2023-12-28T10:12:25;11.20;99.90
46676;DHT22;32412;51.478;5.694;2023-12-28T10:14:53;11.30;99.90
46676;DHT22;32412;51.478;5.694;2023-12-28T10:17:21;11.30;99.90
46676;DHT22;32412;51.478;5.694;2023-12-28T10:19:47;11.30;99.90
46676;DHT22;32412;51.478;5.694;2023-12-28T10:22:14;11.30;99.90
46676;DHT22;32412;51.478;5.694;2023-12-28T10:24:46;11.30;99.90
46676;DHT22;32412;51.478;5.694;2023-12-28T10:27:13;11.30;99.90
46676;DHT22;32412;51.478;5.694;2023-12-28T10:29:39;11.40;99.90
46676;DHT22;32412;51.478;5.694;2023-12-28T10:32:05;11.40;99.90
46676;DHT22;32412;51.478;5.694;2023-12-28T10:34:31;11.50;99.90
46676;DHT22;32412;51.478;5.694;2023-12-28T10:36:59;11.50;99.90
46676;DHT22;32412;51.478;5.694;2023-12-28T10:39:26;11.50;99.90
46676;DHT22;32412;51.478;5.694;2023-12-28T10:41:55;11.50;99.90
46676;DHT22;32412;51.478;5.694;2023-12-28T10:44:23;11.50;99.90
46676;DHT22;32412;51.478;5.694;2023-12-28T10:46:55;11.50;99.90
46676;DHT22;32412;51.478;5.694;2023-12-28T10:49:25;11.60;99.90
46676;DHT22;32412;51.478;5.694;2023-12-28T10:51:52;11.60;99.90
46676;DHT22;32412;51.478;5.694;2023-12-28T10:56:52;11.70;99.90
46676;DHT22;32412;51.478;5.694;2023-12-28T11:01:55;12.10;99.90
46676;DHT22;32412;51.478;5.694;2023-12-28T11:04:42;12.30;99.90
46676;DHT22;32412;51.478;5.694;2023-12-28T11:07:10;12.30;99.90
46676;DHT22;32412;51.478;5.694;2023-12-28T11:09:41;12.10;99.90
46676;DHT22;32412;51.478;5.694;2023-12-28T11:12:07;12.20;99.90
46676;DHT22;32412;51.478;5.694;2023-12-28T11:14:34;12.40;99.90
46676;DHT22;32412;51.478;5.694;2023-12-28T11:17:00;12.60;99.90
46676;DHT22;32412;51.478;5.694;2023-12-28T11:19:31;12.60;99.90
46676;DHT22;32412;51.478;5.694;2023-12-28T11:21:57;12.40;99.90
46676;DHT22;32412;51.478;5.694;2023-12-28T11:24:29;12.40;99.90
46676;DHT22;32412;51.478;5.694;2023-12-28T11:26:56;12.40;99.90
46676;DHT22;32412;51.478;5.694;2023-12-28T11:29:22;12.40;99.90
46676;DHT22;32412;51.478;5.694;2023-12-28T11:31:57;12.40;99.90
46676;DHT22;32412;51.478;5.694;2023-12-28T11:34:29;12.60;99.90
46676;DHT22;32412;51.478;5.694;2023-12-28T11:36:57;12.50;99.90
46676;DHT22;32412;51.478;5.694;2023-12-28T11:39:31;12.40;99.90
46676;DHT22;32412;51.478;5.694;2023-12-28T11:42:06;12.20;99.90
46676;DHT22;32412;51.478;5.694;2023-12-28T11:44:37;12.00;99.90
46676;DHT22;32412;51.478;5.694;2023-12-28T11:47:15;12.00;99.90
46676;DHT22;32412;51.478;5.694;2023-12-28T11:49:41;12.00;99.90
46676;DHT22;32412;51.478;5.694;2023-12-28T11:52:08;11.90;99.90
46676;DHT22;32412;51.478;5.694;2023-12-28T11:54:45;11.90;99.90
46676;DHT22;32412;51.478;5.694;2023-12-28T11:57:16;11.90;99.90
46676;DHT22;32412;51.478;5.694;2023-12-28T11:59:44;11.90;99.90
46676;DHT22;32412;51.478;5.694;2023-12-28T12:02:10;11.90;99.90
46676;DHT22;32412;51.478;5.694;2023-12-28T12:04:37;11.90;99.90
46676;DHT22;32412;51.478;5.694;2023-12-28T12:07:03;11.90;99.90
46676;DHT22;32412;51.478;5.694;2023-12-28T12:09:31;11.80;99.90
46676;DHT22;32412;51.478;5.694;2023-12-28T12:12:04;11.90;99.90
46676;DHT22;32412;51.478;5.694;2023-12-28T12:14:30;11.80;99.90
46676;DHT22;32412;51.478;5.694;2023-12-28T12:17:00;11.80;99.90
46676;DHT22;32412;51.478;5.694;2023-12-28T12:19:26;11.80;99.90
46676;DHT22;32412;51.478;5.694;2023-12-28T12:21:52;11.70;99.90
46676;DHT22;32412;51.478;5.694;2023-12-28T12:24:19;11.70;99.90
46676;DHT22;32412;51.478;5.694;2023-12-28T12:26:46;11.70;99.90
46676;DHT22;32412;51.478;5.694;2023-12-28T12:29:12;11.70;99.90
46676;DHT22;32412;51.478;5.694;2023-12-28T12:31:40;11.70;99.90
46676;DHT22;32412;51.478;5.694;2023-12-28T12:34:14;11.80;99.90
46676;DHT22;32412;51.478;5.694;2023-12-28T12:36:44;11.80;99.90
46676;DHT22;32412;51.478;5.694;2023-12-28T12:39:10;11.90;99.90
46676;DHT22;32412;51.478;5.694;2023-12-28T12:41:39;11.80;99.90
46676;DHT22;32412;51.478;5.694;2023-12-28T12:44:05;11.90;99.90
46676;DHT22;32412;51.478;5.694;2023-12-28T12:46:35;11.80;99.90
46676;DHT22;32412;51.478;5.694;2023-12-28T12:49:11;11.80;99.90
46676;DHT22;32412;51.478;5.694;2023-12-28T12:51:38;11.80;99.90
46676;DHT22;32412;51.478;5.694;2023-12-28T12:54:08;11.80;99.90
46676;DHT22;32412;51.478;5.694;2023-12-28T12:56:36;11.80;99.90
46676;DHT22;32412;51.478;5.694;2023-12-28T12:59:06;11.80;99.90
46676;DHT22;32412;51.478;5.694;2023-12-28T13:01:41;11.80;99.90
46676;DHT22;32412;51.478;5.694;2023-12-28T13:04:07;11.90;99.90
46676;DHT22;32412;51.478;5.694;2023-12-28T13:06:35;11.90;99.90
46676;DHT22;32412;51.478;5.694;2023-12-28T13:09:01;11.80;99.90
46676;DHT22;32412;51.478;5.694;2023-12-28T13:11:26;11.80;99.90
46676;DHT22;32412;51.478;5.694;2023-12-28T13:13:53;11.90;99.90
46676;DHT22;32412;51.478;5.694;2023-12-28T13:16:18;11.80;99.90
46676;DHT22;32412;51.478;5.694;2023-12-28T13:18:44;11.80;99.90
46676;DHT22;32412;51.478;5.694;2023-12-28T13:21:10;11.80;99.90
46676;DHT22;32412;51.478;5.694;2023-12-28T13:23:36;11.90;99.90
46676;DHT22;32412;51.478;5.694;2023-12-28T13:26:02;11.80;99.90
46676;DHT22;32412;51.478;5.694;2023-12-28T13:28:28;11.80;99.90
46676;DHT22;32412;51.478;5.694;2023-12-28T13:30:59;11.90;99.90
46676;DHT22;32412;51.478;5.694;2023-12-28T13:33:25;11.80;99.90
46676;DHT22;32412;51.478;5.694;2023-12-28T13:35:54;11.80;99.90
46676;DHT22;32412;51.478;5.694;2023-12-28T13:38:20;11.80;99.90
46676;DHT22;32412;51.478;5.694;2023-12-28T13:40:46;11.80;99.90
46676;DHT22;32412;51.478;5.694;2023-12-28T13:43:15;11.80;99.90
46676;DHT22;32412;51.478;5.694;2023-12-28T13:45:42;11.80;99.90
46676;DHT22;32412;51.478;5.694;2023-12-28T13:48:08;11.90;99.90
46676;DHT22;32412;51.478;5.694;2023-12-28T13:50:34;11.90;99.90
46676;DHT22;32412;51.478;5.694;2023-12-28T13:53:00;11.90;99.90
46676;DHT22;32412;51.478;5.694;2023-12-28T13:55:29;11.90;99.90
46676;DHT22;32412;51.478;5.694;2023-12-28T13:57:56;11.90;99.90
46676;DHT22;32412;51.478;5.694;2023-12-28T14:00:22;11.90;99.90
46676;DHT22;32412;51.478;5.694;2023-12-28T14:02:47;11.90;99.90
46676;DHT22;32412;51.478;5.694;2023-12-28T14:05:16;11.90;99.90
46676;DHT22;32412;51.478;5.694;2023-12-28T14:07:42;11.90;99.90
46676;DHT22;32412;51.478;5.694;2023-12-28T14:10:08;11.90;99.90
46676;DHT22;32412;51.478;5.694;2023-12-28T14:12:34;11.90;99.90
46676;DHT22;32412;51.478;5.694;2023-12-28T14:15:00;11.90;99.90
46676;DHT22;32412;51.478;5.694;2023-12-28T14:17:28;11.90;99.90
46676;DHT22;32412;51.478;5.694;2023-12-28T14:19:55;11.80;99.90
46676;DHT22;32412;51.478;5.694;2023-12-28T14:22:21;11.80;99.90
46676;DHT22;32412;51.478;5.694;2023-12-28T14:24:51;11.80;99.90
46676;DHT22;32412;51.478;5.694;2023-12-28T14:27:20;11.70;99.90
46676;DHT22;32412;51.478;5.694;2023-12-28T14:29:47;11.60;99.90
46676;DHT22;32412;51.478;5.694;2023-12-28T14:32:15;11.60;99.90
46676;DHT22;32412;51.478;5.694;2023-12-28T14:34:41;11.60;99.90
46676;DHT22;32412;51.478;5.694;2023-12-28T14:37:10;11.50;99.90
46676;DHT22;32412;51.478;5.694;2023-12-28T14:39:35;11.60;99.90
46676;DHT22;32412;51.478;5.694;2023-12-28T14:42:01;11.50;99.90
46676;DHT22;32412;51.478;5.694;2023-12-28T14:44:29;11.50;99.90
46676;DHT22;32412;51.478;5.694;2023-12-28T14:46:55;11.50;99.90
46676;DHT22;32412;51.478;5.694;2023-12-28T14:49:28;11.50;99.90
46676;DHT22;32412;51.478;5.694;2023-12-28T14:51:54;11.50;99.90
46676;DHT22;32412;51.478;5.694;2023-12-28T14:54:20;11.50;99.90
46676;DHT22;32412;51.478;5.694;2023-12-28T14:56:46;11.40;99.90
46676;DHT22;32412;51.478;5.694;2023-12-28T14:59:14;11.50;99.90
46676;DHT22;32412;51.478;5.694;2023-12-28T15:01:42;11.50;99.90
46676;DHT22;32412;51.478;5.694;2023-12-28T15:04:08;11.40;99.90
46676;DHT22;32412;51.478;5.694;2023-12-28T15:06:34;11.50;99.90
46676;DHT22;32412;51.478;5.694;2023-12-28T15:08:59;11.40;99.90
46676;DHT22;32412;51.478;5.694;2023-12-28T15:11:25;11.40;99.90
46676;DHT22;32412;51.478;5.694;2023-12-28T15:13:51;11.40;99.90
46676;DHT22;32412;51.478;5.694;2023-12-28T15:16:17;11.50;99.90
46676;DHT22;32412;51.478;5.694;2023-12-28T15:18:43;11.40;99.90
46676;DHT22;32412;51.478;5.694;2023-12-28T15:21:09;11.40;99.90
46676;DHT22;32412;51.478;5.694;2023-12-28T15:23:35;11.40;99.90
46676;DHT22;32412;51.478;5.694;2023-12-28T15:26:01;11.30;99.90
46676;DHT22;32412;51.478;5.694;2023-12-28T15:28:27;11.30;99.90
46676;DHT22;32412;51.478;5.694;2023-12-28T15:30:53;11.20;99.90
46676;DHT22;32412;51.478;5.694;2023-12-28T15:33:18;11.20;99.90
46676;DHT22;32412;51.478;5.694;2023-12-28T15:35:44;11.20;99.90
46676;DHT22;32412;51.478;5.694;2023-12-28T15:38:10;11.10;99.90
46676;DHT22;32412;51.478;5.694;2023-12-28T15:40:39;11.10;99.90
46676;DHT22;32412;51.478;5.694;2023-12-28T15:43:04;11.10;99.90